createdAt,value
2023-02-14T00:00:51.086Z,101953.94
2023-02-14T00:03:17.830Z,101951.06
2023-02-14T00:05:44.484Z,101949.47
2023-02-14T00:08:11.454Z,101952.13
2023-02-14T00:10:38.181Z,101951.44
2023-02-14T00:13:05.252Z,101953.03
2023-02-14T00:15:31.975Z,101952.22
2023-02-14T00:18:02.131Z,101958.22
2023-02-14T00:20:29.132Z,101959.41
2023-02-14T00:22:55.833Z,101952.53
2023-02-14T00:25:23.003Z,101953.28
2023-02-14T00:27:49.684Z,101955.81
2023-02-14T00:30:16.448Z,101951.41
2023-02-14T00:32:43.560Z,101951.50
2023-02-14T00:35:10.859Z,101954.06
2023-02-14T00:41:59.102Z,101949.75
2023-02-14T00:44:25.836Z,101947.00
2023-02-14T00:46:52.634Z,101947.81
2023-02-14T00:49:19.435Z,101954.66
2023-02-14T00:51:46.246Z,101959.19
2023-02-14T00:54:13.017Z,101958.97
2023-02-14T00:56:39.791Z,101949.97
2023-02-14T00:59:09.127Z,101953.69
2023-02-14T01:01:35.901Z,101945.50
2023-02-14T01:04:03.496Z,101954.44
2023-02-14T01:06:30.397Z,101957.28
2023-02-14T01:08:57.497Z,101952.06
2023-02-14T01:11:25.268Z,101951.72
2023-02-14T01:13:55.255Z,101949.19
2023-02-14T01:19:09.366Z,101959.75
2023-02-14T01:43:52.216Z,101944.38
2023-02-14T01:46:18.966Z,101947.03
2023-02-14T01:48:46.448Z,101938.38
2023-02-14T01:51:14.297Z,101932.56
2023-02-14T01:53:41.021Z,101939.59
2023-02-14T01:56:11.717Z,101940.53
2023-02-14T01:58:40.959Z,101942.34
2023-02-14T02:01:08.757Z,101946.38
2023-02-14T02:03:44.940Z,101938.69
2023-02-14T02:06:15.828Z,101951.47
2023-02-14T02:08:54.546Z,101953.09
2023-02-14T02:11:21.552Z,101946.16
2023-02-14T02:13:48.400Z,101946.03
2023-02-14T02:16:30.128Z,101949.81
2023-02-14T02:19:02.338Z,101946.53
2023-02-14T02:21:41.155Z,101945.63
2023-02-14T02:24:21.783Z,101946.47
2023-02-14T02:27:14.235Z,101946.56
2023-02-14T02:30:02.597Z,101947.44
2023-02-14T02:32:52.675Z,101946.69
2023-02-14T02:35:37.646Z,101951.09
2023-02-14T02:38:38.756Z,101941.28
2023-02-14T02:41:44.381Z,101947.38
2023-02-14T02:44:41.468Z,101950.84
2023-02-14T02:47:16.832Z,101950.69
2023-02-14T02:50:27.872Z,101952.69
2023-02-14T02:53:17.029Z,101943.22
2023-02-14T02:56:03.885Z,101941.22
2023-02-14T02:58:39.876Z,101943.47
2023-02-14T03:01:14.172Z,101934.34
2023-02-14T03:03:59.998Z,101944.59
2023-02-14T03:06:26.845Z,101933.56
2023-02-14T03:08:53.518Z,101939.91
2023-02-14T03:11:20.405Z,101935.84
2023-02-14T03:14:12.637Z,101937.19
2023-02-14T03:16:59.646Z,101940.88
2023-02-14T03:19:59.170Z,101938.53
2023-02-14T03:22:31.831Z,101935.38
2023-02-14T03:25:16.581Z,101942.59
2023-02-14T03:27:48.654Z,101943.53
2023-02-14T03:30:40.543Z,101945.06
2023-02-14T03:33:21.447Z,101943.38
2023-02-14T03:36:07.094Z,101940.16
2023-02-14T03:38:55.402Z,101946.00
2023-02-14T03:41:26.257Z,101941.22
2023-02-14T03:43:56.778Z,101933.63
2023-02-14T03:46:53.764Z,101939.94
2023-02-14T03:49:24.281Z,101930.97
2023-02-14T03:51:52.848Z,101936.13
2023-02-14T03:54:20.332Z,101937.06
2023-02-14T03:56:50.400Z,101926.22
2023-02-14T03:59:21.142Z,101932.22
2023-02-14T04:01:50.810Z,101925.97
2023-02-14T04:04:21.132Z,101927.69
2023-02-14T04:06:48.000Z,101930.34
2023-02-14T04:09:14.685Z,101934.63
2023-02-14T04:11:41.435Z,101925.06
2023-02-14T04:14:08.420Z,101926.34
2023-02-14T04:16:55.452Z,101925.00
2023-02-14T04:19:24.865Z,101924.47
2023-02-14T04:21:52.302Z,101925.97
2023-02-14T04:24:19.845Z,101921.34
2023-02-14T04:27:09.929Z,101925.19
2023-02-14T04:29:44.855Z,101925.31
2023-02-14T04:32:14.001Z,101928.22
2023-02-14T04:34:40.892Z,101930.66
2023-02-14T04:37:07.997Z,101928.00
2023-02-14T04:39:35.200Z,101920.91
2023-02-14T04:42:02.454Z,101928.03
2023-02-14T04:44:29.250Z,101921.75
2023-02-14T04:46:56.091Z,101921.00
2023-02-14T04:49:22.936Z,101913.13
2023-02-14T04:51:49.743Z,101920.25
2023-02-14T04:54:16.508Z,101919.50
2023-02-14T04:56:43.214Z,101916.16
2023-02-14T04:59:10.087Z,101916.97
2023-02-14T05:01:37.057Z,101922.06
2023-02-14T05:04:03.740Z,101912.38
2023-02-14T05:06:30.478Z,101915.88
2023-02-14T05:08:57.308Z,101918.47
2023-02-14T05:11:24.008Z,101909.63
2023-02-14T05:13:50.756Z,101907.66
2023-02-14T05:16:17.614Z,101912.25
2023-02-14T05:18:44.509Z,101911.19
2023-02-14T05:21:11.554Z,101908.69
2023-02-14T05:23:38.450Z,101912.06
2023-02-14T05:26:05.215Z,101908.69
2023-02-14T05:28:32.159Z,101907.66
2023-02-14T05:30:59.429Z,101909.38
2023-02-14T05:33:26.841Z,101910.31
2023-02-14T05:35:53.622Z,101907.34
2023-02-14T05:38:20.378Z,101911.44
2023-02-14T05:40:47.180Z,101909.03
2023-02-14T05:43:13.922Z,101919.53
2023-02-14T05:45:40.702Z,101910.81
2023-02-14T05:48:07.485Z,101910.78
2023-02-14T05:50:34.229Z,101915.84
2023-02-14T05:53:01.365Z,101910.03
2023-02-14T05:55:28.148Z,101907.22
2023-02-14T05:57:54.872Z,101909.78
2023-02-14T06:00:22.718Z,101913.41
2023-02-14T06:02:49.409Z,101911.72
2023-02-14T06:05:18.173Z,101917.66
2023-02-14T06:07:50.478Z,101915.13
2023-02-14T06:10:18.455Z,101919.41
2023-02-14T06:12:45.750Z,101917.81
2023-02-14T06:15:12.516Z,101915.19
2023-02-14T06:17:39.215Z,101915.13
2023-02-14T06:20:06.869Z,101918.69
2023-02-14T06:22:33.557Z,101923.94
2023-02-14T06:25:00.268Z,101924.66
2023-02-14T06:27:28.403Z,101930.88
2023-02-14T06:29:55.190Z,101928.66
2023-02-14T06:32:21.999Z,101923.09
2023-02-14T06:34:48.721Z,101919.31
2023-02-14T06:37:15.598Z,101927.47
2023-02-14T06:39:42.380Z,101930.78
2023-02-14T06:42:09.277Z,101932.44
2023-02-14T06:44:35.951Z,101932.72
2023-02-14T06:47:02.786Z,101922.91
2023-02-14T06:49:29.591Z,101926.66
2023-02-14T06:51:56.388Z,101925.63
2023-02-14T06:54:23.036Z,101933.75
2023-02-14T06:56:49.843Z,101930.28
2023-02-14T06:59:16.737Z,101933.97
2023-02-14T07:01:43.524Z,101929.94
2023-02-14T07:04:10.328Z,101929.44
2023-02-14T07:06:37.357Z,101925.69
2023-02-14T07:09:05.016Z,101936.28
2023-02-14T07:11:31.937Z,101932.97
2023-02-14T07:13:58.718Z,101943.53
2023-02-14T07:16:25.840Z,101936.56
2023-02-14T07:18:52.590Z,101939.34
2023-02-14T07:21:19.311Z,101945.53
2023-02-14T07:23:47.661Z,101944.53
2023-02-14T07:26:18.009Z,101941.09
2023-02-14T07:28:45.635Z,101945.59
2023-02-14T07:31:12.850Z,101946.31
2023-02-14T07:33:39.766Z,101940.09
2023-02-14T07:36:07.842Z,101938.41
2023-02-14T07:38:35.564Z,101939.97
2023-02-14T07:41:02.617Z,101946.28
2023-02-14T07:43:29.331Z,101943.72
2023-02-14T07:45:56.058Z,101949.13
2023-02-14T07:48:22.842Z,101941.91
2023-02-14T07:50:49.590Z,101940.25
2023-02-14T07:53:16.384Z,101933.28
2023-02-14T07:55:43.091Z,101940.13
2023-02-14T07:58:09.832Z,101930.75
2023-02-14T08:00:36.533Z,101938.91
2023-02-14T08:03:03.258Z,101935.28
2023-02-14T08:05:30.060Z,101944.81
2023-02-14T08:07:56.836Z,101940.41
2023-02-14T08:10:23.540Z,101938.66
2023-02-14T08:12:59.530Z,101934.31
2023-02-14T08:15:50.413Z,101938.59
2023-02-14T08:18:18.319Z,101937.66
2023-02-14T08:20:49.710Z,101934.91
2023-02-14T08:23:17.858Z,101935.75
2023-02-14T08:25:44.507Z,101932.22
2023-02-14T08:28:13.148Z,101931.25
2023-02-14T08:30:40.037Z,101922.41
2023-02-14T08:33:07.276Z,101930.28
2023-02-14T08:35:34.742Z,101927.59
2023-02-14T08:38:01.481Z,101928.50
2023-02-14T08:40:28.623Z,101926.78
2023-02-14T08:42:55.340Z,101923.94
2023-02-14T08:45:22.435Z,101931.88
2023-02-14T08:47:49.197Z,101935.34
2023-02-14T08:50:17.327Z,101926.72
2023-02-14T08:52:44.304Z,101927.59
2023-02-14T08:55:12.706Z,101926.84
2023-02-14T08:57:39.921Z,101938.84
2023-02-14T09:00:07.821Z,101928.44
2023-02-14T09:02:34.654Z,101929.19
2023-02-14T09:05:01.425Z,101919.63
2023-02-14T09:07:28.234Z,101930.00
2023-02-14T09:09:55.068Z,101934.47
2023-02-14T09:12:21.944Z,101941.63
2023-02-14T09:14:48.600Z,101936.50
2023-02-14T09:17:16.568Z,101935.41
2023-02-14T09:19:43.524Z,101932.97
2023-02-14T09:22:11.237Z,101940.03
2023-02-14T09:24:39.219Z,101927.78
2023-02-14T09:27:06.149Z,101933.13
2023-02-14T09:29:33.683Z,101930.38
2023-02-14T09:32:01.395Z,101923.44
2023-02-14T09:34:28.768Z,101926.03
2023-02-14T09:36:55.475Z,101930.38
2023-02-14T09:39:22.382Z,101922.41
2023-02-14T09:42:03.774Z,101924.31
2023-02-14T09:44:37.431Z,101916.25
2023-02-14T09:47:12.826Z,101913.59
2023-02-14T09:49:40.088Z,101915.28
2023-02-14T09:52:11.042Z,101902.94
2023-02-14T09:54:38.152Z,101901.06
2023-02-14T09:57:15.263Z,101900.28
2023-02-14T09:59:49.369Z,101903.63
2023-02-14T10:02:38.062Z,101894.09
2023-02-14T10:05:22.124Z,101895.78
2023-02-14T10:08:00.516Z,101888.19
2023-02-14T10:10:45.150Z,101889.00
2023-02-14T10:13:32.169Z,101896.16
2023-02-14T10:16:08.369Z,101886.22
2023-02-14T10:18:45.797Z,101884.66
2023-02-14T10:21:20.834Z,101880.22
2023-02-14T10:24:02.064Z,101876.56
2023-02-14T10:26:41.273Z,101875.41
2023-02-14T10:29:14.279Z,101882.31
2023-02-14T10:31:55.675Z,101881.28
2023-02-14T10:34:38.548Z,101879.38
2023-02-14T10:37:48.273Z,101873.19
2023-02-14T10:40:39.666Z,101870.56
2023-02-14T10:43:27.888Z,101873.06
2023-02-14T10:46:18.236Z,101870.97
2023-02-14T10:49:08.424Z,101861.31
2023-02-14T10:51:50.722Z,101856.78
2023-02-14T10:54:38.898Z,101856.78
2023-02-14T10:57:22.617Z,101859.69
2023-02-14T11:00:11.103Z,101855.59
2023-02-14T11:02:41.716Z,101851.13
2023-02-14T11:05:35.918Z,101855.59
2023-02-14T11:08:06.744Z,101853.31
2023-02-14T11:10:35.659Z,101843.22
2023-02-14T11:13:02.398Z,101851.97
2023-02-14T11:15:32.635Z,101849.41
2023-02-14T11:18:10.453Z,101840.50
2023-02-14T11:20:37.218Z,101846.59
2023-02-14T11:23:18.929Z,101847.72
2023-02-14T11:25:50.636Z,101847.53
2023-02-14T11:28:19.429Z,101844.78
2023-02-14T11:30:47.818Z,101847.56
2023-02-14T11:33:33.188Z,101836.00
2023-02-14T11:36:01.023Z,101830.50
2023-02-14T11:38:30.481Z,101825.97
2023-02-14T11:40:58.726Z,101819.63
2023-02-14T11:43:34.387Z,101819.47
2023-02-14T11:46:24.777Z,101815.19
2023-02-14T11:49:07.179Z,101807.44
2023-02-14T11:51:40.571Z,101808.31
2023-02-14T11:54:13.230Z,101808.22
2023-02-14T11:56:54.398Z,101804.78
2023-02-14T11:59:42.539Z,101800.69
2023-02-14T12:02:18.103Z,101799.69
2023-02-14T12:04:46.720Z,101793.72
2023-02-14T12:07:18.728Z,101794.59
2023-02-14T12:09:47.187Z,101785.78
2023-02-14T12:12:23.322Z,101785.78
2023-02-14T12:14:50.351Z,101784.94
2023-02-14T12:17:37.618Z,101778.91
2023-02-14T12:20:14.482Z,101782.25
2023-02-14T12:22:50.366Z,101776.13
2023-02-14T12:25:22.728Z,101769.28
2023-02-14T12:27:57.123Z,101769.41
2023-02-14T12:30:25.526Z,101777.03
2023-02-14T12:32:54.143Z,101773.88
2023-02-14T12:35:45.031Z,101764.31
2023-02-14T12:38:20.660Z,101761.31
2023-02-14T12:41:16.191Z,101750.84
2023-02-14T12:43:50.792Z,101756.00
2023-02-14T12:46:35.954Z,101749.22
2023-02-14T12:49:33.155Z,101755.38
2023-02-14T12:52:08.345Z,101747.59
2023-02-14T12:54:43.759Z,101749.00
2023-02-14T12:57:40.460Z,101747.19
2023-02-14T13:00:09.810Z,101740.00
2023-02-14T13:03:10.244Z,101735.72
2023-02-14T13:05:50.754Z,101738.84
2023-02-14T13:08:29.981Z,101731.91
2023-02-14T13:11:21.707Z,101730.59
2023-02-14T13:13:53.263Z,101730.38
2023-02-14T13:16:40.692Z,101729.28
2023-02-14T13:19:23.544Z,101724.97
2023-02-14T13:21:50.760Z,101722.25
2023-02-14T13:24:29.558Z,101711.56
2023-02-14T13:26:59.880Z,101707.66
2023-02-14T13:29:37.231Z,101706.84
2023-02-14T13:32:04.640Z,101711.34
2023-02-14T13:34:34.933Z,101712.44
2023-02-14T13:37:04.093Z,101702.41
2023-02-14T13:39:41.446Z,101698.91
2023-02-14T13:42:08.682Z,101705.25
2023-02-14T13:44:49.330Z,101696.13
2023-02-14T13:47:23.582Z,101693.56
2023-02-14T13:49:51.633Z,101698.69
2023-02-14T13:52:45.188Z,101703.88
2023-02-14T13:55:34.776Z,101701.44
2023-02-14T13:58:07.263Z,101683.94
2023-02-14T14:00:42.879Z,101686.41
2023-02-14T14:03:27.245Z,101675.09
2023-02-14T14:06:00.714Z,101685.72
2023-02-14T14:08:29.282Z,101677.00
2023-02-14T14:11:01.469Z,101674.13
2023-02-14T14:13:40.169Z,101678.75
2023-02-14T14:16:21.338Z,101680.50
2023-02-14T14:18:48.466Z,101668.25
2023-02-14T14:21:32.105Z,101670.84
2023-02-14T14:24:27.916Z,101669.31
2023-02-14T14:27:14.202Z,101660.28
2023-02-14T14:29:48.309Z,101660.13
2023-02-14T14:32:21.457Z,101664.38
2023-02-14T14:34:53.118Z,101655.72
2023-02-14T14:37:22.981Z,101654.88
2023-02-14T14:39:55.069Z,101651.19
2023-02-14T14:42:23.459Z,101663.63
2023-02-14T14:44:53.463Z,101662.81
2023-02-14T14:47:25.576Z,101652.56
2023-02-14T14:49:59.811Z,101649.97
2023-02-14T14:52:34.052Z,101649.22
2023-02-14T14:55:01.300Z,101662.13
2023-02-14T14:57:27.999Z,101662.34
2023-02-14T15:00:14.056Z,101649.25
2023-02-14T15:02:40.779Z,101648.16
2023-02-14T15:05:14.243Z,101654.22
2023-02-14T15:07:41.921Z,101640.03
2023-02-14T15:10:23.327Z,101644.50
2023-02-14T15:13:14.184Z,101642.44
2023-02-14T15:15:41.603Z,101631.22
2023-02-14T15:18:08.592Z,101637.50
2023-02-14T15:20:36.832Z,101634.88
2023-02-14T15:23:04.788Z,101640.06
2023-02-14T15:25:33.598Z,101639.44
2023-02-14T15:28:00.748Z,101637.53
2023-02-14T15:30:37.935Z,101643.03
2023-02-14T15:33:06.129Z,101645.00
2023-02-14T15:35:34.987Z,101640.41
2023-02-14T15:38:05.073Z,101641.41
2023-02-14T15:40:33.823Z,101632.78
2023-02-14T15:43:18.765Z,101632.72
2023-02-14T15:45:47.771Z,101638.06
2023-02-14T15:48:24.547Z,101638.84
2023-02-14T15:50:53.051Z,101630.50
2023-02-14T15:53:19.740Z,101634.69
2023-02-14T15:55:49.603Z,101635.59
2023-02-14T15:58:22.847Z,101635.69
2023-02-14T16:00:49.497Z,101640.16
2023-02-14T16:03:37.015Z,101637.41
2023-02-14T16:06:04.510Z,101621.59
2023-02-14T16:08:36.741Z,101629.22
2023-02-14T16:11:05.914Z,101627.63
2023-02-14T16:13:37.258Z,101623.22
2023-02-14T16:16:09.366Z,101618.78
2023-02-14T16:18:47.714Z,101622.41
2023-02-14T16:21:30.378Z,101625.09
2023-02-14T16:24:10.615Z,101629.66
2023-02-14T16:26:42.388Z,101627.06
2023-02-14T16:29:11.627Z,101633.22
2023-02-14T16:34:42.197Z,101631.81
2023-02-14T16:37:19.229Z,101630.88
2023-02-14T16:39:45.972Z,101631.69
2023-02-14T16:42:16.920Z,101635.75
2023-02-14T16:44:45.459Z,101642.09
2023-02-14T16:47:13.675Z,101636.88
2023-02-14T16:49:40.783Z,101636.00
2023-02-14T16:52:13.237Z,101643.31
2023-02-14T16:54:40.212Z,101648.56
2023-02-14T16:57:07.520Z,101650.56
2023-02-14T16:59:34.246Z,101657.47
2023-02-14T17:02:02.157Z,101654.72
2023-02-14T17:04:28.860Z,101655.69
2023-02-14T17:09:27.817Z,101650.66
2023-02-14T17:11:58.111Z,101651.25
2023-02-14T17:14:27.665Z,101649.00
2023-02-14T17:16:55.370Z,101651.53
2023-02-14T17:19:22.292Z,101651.66
2023-02-14T17:21:49.057Z,101645.34
2023-02-14T17:24:15.922Z,101646.50
2023-02-14T17:26:42.695Z,101649.09
2023-02-14T17:29:09.356Z,101647.22
2023-02-14T17:31:36.322Z,101649.84
2023-02-14T17:34:03.114Z,101655.06
2023-02-14T17:36:30.301Z,101645.28
2023-02-14T17:38:57.106Z,101652.25
2023-02-14T17:41:25.674Z,101656.88
2023-02-14T17:43:54.752Z,101655.22
2023-02-14T17:46:21.956Z,101647.31
2023-02-14T17:48:49.579Z,101657.97
2023-02-14T17:51:18.019Z,101657.31
2023-02-14T17:53:44.869Z,101663.34
2023-02-14T17:56:17.870Z,101664.03
2023-02-14T17:58:47.540Z,101655.19
2023-02-14T18:01:16.146Z,101660.38
2023-02-14T18:03:43.009Z,101661.34
2023-02-14T18:06:11.313Z,101660.47
2023-02-14T18:08:46.181Z,101663.19
2023-02-14T18:11:13.175Z,101655.94
2023-02-14T18:13:40.119Z,101663.91
2023-02-14T18:16:12.080Z,101653.28
2023-02-14T18:18:39.003Z,101655.19
2023-02-14T18:21:08.037Z,101649.09
2023-02-14T18:23:34.799Z,101652.34
2023-02-14T18:26:06.880Z,101651.34
2023-02-14T18:28:34.723Z,101642.69
2023-02-14T18:31:09.640Z,101651.78
2023-02-14T18:33:36.912Z,101639.22
2023-02-14T18:36:13.832Z,101641.81
2023-02-14T18:38:42.671Z,101641.75
2023-02-14T18:41:12.976Z,101635.00
2023-02-14T18:43:41.156Z,101630.53
2023-02-14T18:46:10.437Z,101633.03
2023-02-14T18:48:37.509Z,101618.91
2023-02-14T18:51:08.745Z,101625.88
2023-02-14T18:53:39.224Z,101618.97
2023-02-14T18:56:17.251Z,101612.22
2023-02-14T18:58:50.611Z,101617.25
2023-02-14T19:01:18.102Z,101613.31
2023-02-14T19:03:45.531Z,101618.34
2023-02-14T19:06:12.832Z,101612.94
2023-02-14T19:08:40.687Z,101619.09
2023-02-14T19:11:18.595Z,101611.41
2023-02-14T19:13:48.758Z,101608.78
2023-02-14T19:16:18.238Z,101603.41
2023-02-14T19:18:45.505Z,101598.72
2023-02-14T19:21:17.765Z,101595.16
2023-02-14T19:23:44.580Z,101595.25
2023-02-14T19:26:16.878Z,101597.22
2023-02-14T19:28:44.972Z,101598.16
2023-02-14T19:31:12.114Z,101599.91
2023-02-14T19:33:43.807Z,101608.31
2023-02-14T19:36:13.209Z,101601.13
2023-02-14T19:38:41.555Z,101606.50
2023-02-14T19:41:31.628Z,101600.25
2023-02-14T19:44:00.523Z,101590.28
2023-02-14T19:46:28.396Z,101587.53
2023-02-14T19:48:56.221Z,101585.88
2023-02-14T19:51:25.748Z,101582.38
2023-02-14T19:53:53.964Z,101587.41
2023-02-14T19:56:28.878Z,101587.50
2023-02-14T19:58:58.687Z,101583.97
2023-02-14T20:01:37.605Z,101581.13
2023-02-14T20:04:06.076Z,101574.41
2023-02-14T20:06:33.137Z,101587.72
2023-02-14T20:09:00.072Z,101576.44
2023-02-14T20:11:30.942Z,101564.66
2023-02-14T20:13:58.444Z,101573.41
2023-02-14T20:16:26.584Z,101564.56
2023-02-14T20:18:53.782Z,101559.16
2023-02-14T20:21:28.432Z,101561.75
2023-02-14T20:24:00.813Z,101562.75
2023-02-14T20:26:28.810Z,101564.56
2023-02-14T20:28:55.572Z,101558.50
2023-02-14T20:31:22.550Z,101553.03
2023-02-14T20:33:52.843Z,101550.41
2023-02-14T20:36:20.245Z,101551.38
2023-02-14T20:38:47.404Z,101547.81
2023-02-14T20:41:16.412Z,101546.22
2023-02-14T20:43:43.137Z,101544.59
2023-02-14T20:46:09.844Z,101542.75
2023-02-14T20:48:36.697Z,101534.97
2023-02-14T20:51:13.994Z,101528.00
2023-02-14T20:53:41.014Z,101526.88
2023-02-14T20:56:08.560Z,101528.84
2023-02-14T20:58:36.738Z,101531.31
2023-02-14T21:01:17.517Z,101528.94
2023-02-14T21:03:50.637Z,101525.22
2023-02-14T21:06:17.759Z,101521.22
2023-02-14T21:08:45.034Z,101520.22
2023-02-14T21:11:14.389Z,101515.53
2023-02-14T21:13:41.049Z,101518.53
2023-02-14T21:16:15.116Z,101517.59
2023-02-14T21:18:43.380Z,101516.78
2023-02-14T21:21:14.956Z,101516.53
2023-02-14T21:23:42.115Z,101515.53
2023-02-14T21:26:09.908Z,101513.09
2023-02-14T21:28:36.743Z,101511.88
2023-02-14T21:31:05.251Z,101510.16
2023-02-14T21:33:32.890Z,101504.94
2023-02-14T21:36:29.659Z,101498.00
2023-02-14T21:38:58.471Z,101503.13
2023-02-14T21:41:27.715Z,101495.19
2023-02-14T21:43:56.454Z,101499.59
2023-02-14T21:46:27.461Z,101490.72
2023-02-14T21:49:13.744Z,101480.41
2023-02-14T21:51:40.721Z,101482.88
2023-02-14T21:54:07.580Z,101489.16
2023-02-14T21:56:35.165Z,101477.59
2023-02-14T21:59:01.988Z,101479.25
2023-02-14T22:01:33.932Z,101476.03
2023-02-14T22:04:01.474Z,101479.44
2023-02-14T22:06:28.600Z,101483.13
2023-02-14T22:08:57.158Z,101477.84
2023-02-14T22:11:24.840Z,101480.59
2023-02-14T22:13:51.591Z,101481.44
2023-02-14T22:16:19.912Z,101476.97
2023-02-14T22:18:49.476Z,101480.63
2023-02-14T22:21:18.888Z,101476.59
2023-02-14T22:23:45.656Z,101473.06
2023-02-14T22:26:30.018Z,101479.19
2023-02-14T22:28:59.238Z,101478.09
2023-02-14T22:31:28.523Z,101466.41
2023-02-14T22:33:55.350Z,101470.81
2023-02-14T22:36:22.155Z,101475.50
2023-02-14T22:38:49.138Z,101477.31
2023-02-14T22:41:20.920Z,101478.81
2023-02-14T22:43:47.985Z,101470.91
2023-02-14T22:46:19.375Z,101466.38
2023-02-14T22:48:47.252Z,101469.84
2023-02-14T22:51:24.099Z,101463.69
2023-02-14T22:53:52.700Z,101473.16
2023-02-14T22:56:29.496Z,101470.34
2023-02-14T22:59:01.231Z,101470.28
2023-02-14T23:01:28.340Z,101474.56
2023-02-14T23:03:56.801Z,101479.75
2023-02-14T23:06:25.059Z,101473.72
2023-02-14T23:08:52.425Z,101477.19
2023-02-14T23:11:22.578Z,101464.00
2023-02-14T23:14:08.130Z,101469.25
2023-02-14T23:16:53.738Z,101471.09
2023-02-14T23:19:46.601Z,101466.69
2023-02-14T23:22:24.314Z,101460.50
2023-02-14T23:24:53.717Z,101465.66
2023-02-14T23:27:41.272Z,101457.19
2023-02-14T23:30:10.646Z,101463.97
2023-02-14T23:32:37.502Z,101463.75
2023-02-14T23:35:04.474Z,101462.03
2023-02-14T23:37:31.167Z,101455.16
2023-02-14T23:39:58.090Z,101459.56
2023-02-14T23:42:24.880Z,101452.84
2023-02-14T23:44:51.863Z,101451.09
2023-02-14T23:47:18.945Z,101449.25
2023-02-14T23:49:46.086Z,101452.78
2023-02-14T23:52:13.800Z,101451.22
2023-02-14T23:54:40.755Z,101450.31
2023-02-14T23:57:08.108Z,101438.75
2023-02-14T23:59:34.941Z,101437.94
